Huvudsida
METAR-TAF:

METAR-TAF

Flygplatser :

Palermo, Italien

latitud: 38-11N, longitud: 013-06E, höjd: 21 m

Aktuellt väderrapport

Denna rapport gjordes för 32 minuter sedan, klockan 09:20 UTC
Vind 13 kt från syd
Temperatur 30°C
Fuktighet 59%
Tryck 1015 hPa
Sikt 10 km eller mer
Inga moln under 1 500 m eller inga cumulonimbus

METAR: LICJ 230920Z 19013KT CAVOK 30/21 Q1015

Tid: 11:52 (09:52 UTC)

Väderprognos

Denna rapport gjordes för 4 timmar och 52 minuter sedan, klockan 05:00 UTC
Prognos gäller från 23 kl. 06 UTC till 24 kl. 06 UTC
Vind 14 kt från syd/sydväst
Sikt 10 km eller mer
Spridda moln på en höjd av 3000 ft
Blir
från 23 kl. 09 UTC till 23 kl. 11 UTC
Vind 15 kt från väst
Blir
från 23 kl. 20 UTC till 23 kl. 22 UTC
Vind 5 kt varierande vindriktning
Blir
från 24 kl. 03 UTC till 24 kl. 06 UTC
Vind 10 kt från nordväst

TAF: LICJ 230500Z 2306/2406 20014KT 9999 SCT030 BECMG 2309/2311 27015KT BECMG 2320/2322 VRB05KT BECMG 2403/2406 32010KT

Aktuella väderrapporter och prognoser från 4000 flygplatser (METAR- och TAF-rapporter).

De tillgängliga stationerna syns som gula och röda prickar på kartan.

För musen över prickarna för att se namnen på stationerna.

Klicka sedan för att få väderrapporter och prognoser.

För att ändra kartan: Klicka på de gröna knapparna med ett svart kors på för att zooma in; den gröna knappen med ett streck på för att zooma ut; eller på de gröna pilarna för angränsande kartor.


METAR-TAF: